Time;durP1;ratioP1;P1;durP2;ratioP2;P2;SDS_P1;SDS_P2;PMS_P1;PMS_P2;Temp;Humidity;BMP_temperature;BMP_pressure;BME280_temperature;BME280_humidity;BME280_pressure;Samples;Min_cycle;Max_cycle;Signal;HPM_P1;HPM_P2
2024/01/16 00:01:28;;;;;;;24.87;14.30;;;2.40;97.50;;;;;;812338;175;26469;-71
2024/01/16 00:03:55;;;;;;;40.57;18.07;;;2.40;97.80;;;;;;816433;175;26514;-76
2024/01/16 00:06:21;;;;;;;34.73;14.17;;;2.50;97.10;;;;;;817499;175;26440;-77
2024/01/16 00:08:48;;;;;;;37.60;16.47;;;2.40;96.80;;;;;;817507;175;26947;-77
2024/01/16 00:11:15;;;;;;;36.67;16.83;;;2.40;96.80;;;;;;819966;175;26498;-78
2024/01/16 00:13:41;;;;;;;34.17;15.43;;;2.40;96.80;;;;;;817429;175;27019;-77
2024/01/16 00:16:08;;;;;;;48.40;21.77;;;2.40;96.80;;;;;;816310;175;26479;-74
2024/01/16 00:18:34;;;;;;;36.63;16.60;;;2.30;96.90;;;;;;816424;176;27018;-76
2024/01/16 00:21:02;;;;;;;47.97;20.90;;;2.40;96.80;;;;;;814945;173;26423;-76
2024/01/16 00:23:28;;;;;;;36.87;18.43;;;2.40;96.90;;;;;;811954;175;27048;-77
2024/01/16 00:25:54;;;;;;;37.83;17.73;;;2.40;97.00;;;;;;812299;177;26411;-74
2024/01/16 00:28:21;;;;;;;35.57;17.47;;;2.30;96.80;;;;;;814613;175;26405;-77
2024/01/16 00:30:47;;;;;;;34.23;15.47;;;2.30;96.80;;;;;;812027;177;26486;-76
2024/01/16 00:33:14;;;;;;;53.40;20.60;;;2.30;96.90;;;;;;813558;176;26498;-77
2024/01/16 00:35:40;;;;;;;53.33;21.03;;;2.30;96.90;;;;;;816075;175;26450;-76
2024/01/16 00:38:07;;;;;;;51.43;19.50;;;2.30;96.90;;;;;;817206;175;26436;-77
2024/01/16 00:40:34;;;;;;;49.27;20.23;;;2.30;97.00;;;;;;816665;175;26449;-77
2024/01/16 00:43:00;;;;;;;30.53;15.63;;;2.30;97.20;;;;;;816143;176;26432;-77
2024/01/16 00:45:27;;;;;;;79.30;32.57;;;2.30;96.90;;;;;;816869;174;26971;-73
2024/01/16 00:47:53;;;;;;;91.33;32.83;;;2.30;96.90;;;;;;816886;176;26428;-77
2024/01/16 00:50:20;;;;;;;211.33;62.50;;;2.30;97.10;;;;;;817386;174;26468;-77
2024/01/16 00:52:47;;;;;;;67.07;29.73;;;2.30;97.20;;;;;;817459;175;26463;-77
2024/01/16 00:55:13;;;;;;;44.93;19.67;;;2.20;97.10;;;;;;816950;175;26413;-77
2024/01/16 00:57:40;;;;;;;35.60;16.20;;;2.20;97.10;;;;;;813669;175;26471;-73
2024/01/16 01:00:09;;;;;;;34.63;17.67;;;2.20;97.10;;;;;;811109;176;26482;-77
2024/01/16 01:02:34;;;;;;;36.87;17.37;;;2.20;97.20;;;;;;815690;175;26817;-77
2024/01/16 01:05:00;;;;;;;36.93;17.23;;;2.20;97.10;;;;;;817529;175;26988;-76
2024/01/16 01:07:27;;;;;;;30.47;16.13;;;2.10;96.90;;;;;;817518;175;26428;-76
2024/01/16 01:09:54;;;;;;;25.53;14.67;;;2.10;96.80;;;;;;816720;175;26974;-77
2024/01/16 01:12:20;;;;;;;37.90;17.33;;;2.10;96.90;;;;;;817541;175;26464;-76
2024/01/16 01:14:47;;;;;;;32.30;15.53;;;2.10;97.00;;;;;;811522;175;27097;-77
2024/01/16 01:17:13;;;;;;;45.33;18.33;;;2.10;96.90;;;;;;810878;176;26508;-77
2024/01/16 01:19:40;;;;;;;44.30;20.27;;;2.10;96.90;;;;;;810969;176;26487;-77
2024/01/16 01:22:06;;;;;;;33.33;17.73;;;2.10;96.90;;;;;;811078;176;26503;-74
2024/01/16 01:24:33;;;;;;;41.77;18.33;;;2.10;96.80;;;;;;811636;175;26495;-76
2024/01/16 01:27:00;;;;;;;33.93;16.07;;;2.10;96.70;;;;;;810833;176;26499;-77
2024/01/16 01:29:26;;;;;;;42.80;19.77;;;2.10;96.80;;;;;;810947;175;26471;-77
2024/01/16 01:31:53;;;;;;;37.57;15.87;;;2.10;96.80;;;;;;813466;174;26483;-76
2024/01/16 01:34:19;;;;;;;37.60;16.97;;;2.10;97.00;;;;;;813691;176;26417;-74
2024/01/16 01:36:46;;;;;;;28.33;15.90;;;2.10;96.90;;;;;;812677;176;27014;-76
2024/01/16 01:39:13;;;;;;;48.03;18.17;;;2.10;96.80;;;;;;812555;173;26434;-77
2024/01/16 01:41:39;;;;;;;53.93;20.53;;;2.10;96.90;;;;;;813393;176;27037;-76
2024/01/16 01:44:06;;;;;;;31.30;14.60;;;2.10;96.70;;;;;;815336;175;26458;-73
2024/01/16 01:46:33;;;;;;;37.33;19.40;;;2.10;96.80;;;;;;817359;174;27039;-77
2024/01/16 01:48:59;;;;;;;21.37;12.33;;;2.10;96.80;;;;;;817407;174;26463;-77
2024/01/16 01:51:26;;;;;;;22.37;12.83;;;2.10;96.80;;;;;;814930;176;26456;-76
2024/01/16 01:53:52;;;;;;;31.47;12.63;;;2.10;96.90;;;;;;813724;176;26498;-76
2024/01/16 01:56:19;;;;;;;29.00;13.87;;;2.10;97.00;;;;;;813414;176;26485;-76
2024/01/16 01:58:46;;;;;;;38.63;14.33;;;2.10;97.00;;;;;;813736;176;26999;-77
2024/01/16 02:01:13;;;;;;;31.87;14.00;;;2.10;97.10;;;;;;813883;175;26484;-77
2024/01/16 02:03:43;;;;;;;26.63;13.33;;;2.10;97.10;;;;;;814744;176;26964;-76
2024/01/16 02:06:11;;;;;;;25.87;14.27;;;2.10;97.10;;;;;;815512;176;27159;-77
2024/01/16 02:08:37;;;;;;;51.77;22.43;;;2.10;97.20;;;;;;816701;175;26470;-77
2024/01/16 02:11:04;;;;;;;64.90;27.20;;;2.10;97.30;;;;;;817251;174;26486;-77
2024/01/16 02:13:30;;;;;;;40.37;19.57;;;2.10;97.40;;;;;;817641;175;26444;-76
2024/01/16 02:15:57;;;;;;;43.30;17.57;;;2.00;97.50;;;;;;817429;175;26984;-76
2024/01/16 02:18:24;;;;;;;26.70;15.23;;;2.00;97.60;;;;;;813506;175;26428;-76
2024/01/16 02:20:50;;;;;;;32.63;16.07;;;1.90;97.70;;;;;;810944;177;28125;-76
2024/01/16 02:23:17;;;;;;;44.10;17.33;;;1.90;97.80;;;;;;812810;176;26473;-73
2024/01/16 02:25:43;;;;;;;42.27;20.47;;;1.90;97.90;;;;;;810624;176;26480;-73
2024/01/16 02:28:10;;;;;;;61.77;26.17;;;1.90;97.90;;;;;;810918;176;26472;-76
2024/01/16 02:30:37;;;;;;;50.77;22.67;;;1.90;97.90;;;;;;816152;175;26440;-76
2024/01/16 02:33:03;;;;;;;40.20;17.87;;;1.90;98.00;;;;;;817571;175;26411;-76
2024/01/16 02:35:30;;;;;;;34.13;18.70;;;1.90;97.90;;;;;;817279;175;26435;-76
2024/01/16 02:37:56;;;;;;;37.63;19.50;;;1.90;97.90;;;;;;817471;175;26974;-76
2024/01/16 02:40:23;;;;;;;30.03;15.73;;;1.90;97.80;;;;;;817535;175;26484;-76
2024/01/16 02:42:50;;;;;;;30.73;16.17;;;1.90;97.70;;;;;;818441;173;26981;-76
2024/01/16 02:45:17;;;;;;;28.27;15.23;;;1.90;97.80;;;;;;816450;175;26494;-77
2024/01/16 02:47:43;;;;;;;44.80;18.07;;;1.90;97.70;;;;;;813585;174;26456;-72
2024/01/16 02:50:10;;;;;;;32.10;15.27;;;1.90;97.60;;;;;;812569;177;26511;-76
2024/01/16 02:52:37;;;;;;;26.27;13.33;;;1.90;97.60;;;;;;814089;176;26467;-76
2024/01/16 02:55:04;;;;;;;31.00;14.43;;;1.90;97.30;;;;;;815329;176;26520;-76
2024/01/16 02:57:30;;;;;;;29.73;14.30;;;1.90;97.30;;;;;;817204;175;26433;-76
2024/01/16 02:59:57;;;;;;;32.23;15.43;;;1.90;97.40;;;;;;817572;175;26989;-76
2024/01/16 03:02:24;;;;;;;37.27;13.67;;;1.90;97.40;;;;;;817095;175;26457;-76
2024/01/16 03:04:50;;;;;;;32.00;15.37;;;1.90;97.50;;;;;;817031;176;26479;-76
2024/01/16 03:07:17;;;;;;;43.40;14.53;;;1.80;97.50;;;;;;815973;176;26405;-76
2024/01/16 03:09:43;;;;;;;33.53;16.30;;;1.80;97.60;;;;;;815932;175;26449;-76
2024/01/16 03:12:10;;;;;;;36.50;16.67;;;1.80;97.70;;;;;;817882;175;26501;-75
2024/01/16 03:14:38;;;;;;;42.83;18.03;;;1.80;97.80;;;;;;818138;175;26488;-76
2024/01/16 03:17:03;;;;;;;37.13;17.40;;;1.80;97.90;;;;;;817719;175;26495;-76
2024/01/16 03:19:30;;;;;;;35.73;16.20;;;1.80;98.00;;;;;;817875;175;26428;-77
2024/01/16 03:21:56;;;;;;;32.03;16.77;;;1.80;98.00;;;;;;817596;175;27041;-76
2024/01/16 03:24:23;;;;;;;32.77;15.27;;;1.80;98.00;;;;;;817555;175;26424;-76
2024/01/16 03:26:50;;;;;;;29.73;14.60;;;1.80;98.10;;;;;;815876;175;26496;-76
2024/01/16 03:29:16;;;;;;;35.00;15.67;;;1.80;98.10;;;;;;816547;175;26467;-76
2024/01/16 03:31:43;;;;;;;34.60;15.43;;;1.80;98.00;;;;;;817148;175;26484;-77
2024/01/16 03:34:10;;;;;;;43.70;15.80;;;1.80;97.90;;;;;;817498;175;26426;-76
2024/01/16 03:36:36;;;;;;;34.93;15.00;;;1.80;97.90;;;;;;817430;175;26444;-76
2024/01/16 03:39:03;;;;;;;35.43;15.00;;;1.80;97.90;;;;;;813157;175;26404;-76
2024/01/16 03:41:29;;;;;;;31.97;16.60;;;1.90;98.00;;;;;;809999;177;26432;-76
2024/01/16 03:43:56;;;;;;;35.37;15.30;;;1.90;97.90;;;;;;810712;177;26425;-76
2024/01/16 03:46:22;;;;;;;27.50;13.90;;;1.90;97.70;;;;;;811564;176;26507;-77
2024/01/16 03:48:49;;;;;;;39.47;15.63;;;1.90;97.60;;;;;;811710;177;26467;-76
2024/01/16 03:51:17;;;;;;;33.07;14.77;;;1.90;97.50;;;;;;811708;177;26500;-73
2024/01/16 03:53:43;;;;;;;37.37;16.63;;;1.90;97.50;;;;;;811743;175;26467;-76
2024/01/16 03:56:09;;;;;;;28.40;15.63;;;1.90;97.40;;;;;;814394;174;26411;-76
2024/01/16 03:58:35;;;;;;;34.90;16.00;;;1.90;97.40;;;;;;813666;176;26415;-77
2024/01/16 04:01:02;;;;;;;39.07;18.53;;;1.90;97.50;;;;;;813253;175;26481;-76
2024/01/16 04:03:29;;;;;;;36.80;17.67;;;1.90;97.50;;;;;;813173;175;26506;-73
2024/01/16 04:05:55;;;;;;;44.67;17.47;;;1.90;97.60;;;;;;812678;177;26500;-76
2024/01/16 04:08:22;;;;;;;34.03;18.00;;;1.90;97.60;;;;;;814053;176;26437;-76
2024/01/16 04:10:48;;;;;;;38.80;18.80;;;1.90;97.70;;;;;;814481;176;27021;-76
2024/01/16 04:13:16;;;;;;;31.20;15.57;;;1.90;97.80;;;;;;814090;176;26451;-76
2024/01/16 04:15:42;;;;;;;41.33;18.73;;;1.90;97.90;;;;;;814145;176;26954;-74
2024/01/16 04:18:08;;;;;;;41.67;20.27;;;1.90;97.90;;;;;;813963;176;26505;-76
2024/01/16 04:20:35;;;;;;;37.50;18.93;;;1.90;98.00;;;;;;813667;176;26475;-76
2024/01/16 04:23:01;;;;;;;42.17;20.13;;;1.90;97.90;;;;;;814236;175;26507;-76
2024/01/16 04:25:28;;;;;;;33.13;19.17;;;1.80;97.90;;;;;;816594;176;26416;-76
2024/01/16 04:27:55;;;;;;;43.13;20.23;;;1.80;98.00;;;;;;816400;176;27030;-76
2024/01/16 04:30:21;;;;;;;44.70;20.97;;;1.80;98.10;;;;;;817223;175;26434;-76
2024/01/16 04:32:48;;;;;;;39.60;19.93;;;1.80;98.30;;;;;;816845;176;27029;-76
2024/01/16 04:35:14;;;;;;;36.90;19.13;;;1.70;98.20;;;;;;816307;175;26482;-76
2024/01/16 04:37:41;;;;;;;38.47;20.03;;;1.70;98.20;;;;;;816402;174;26548;-77
2024/01/16 04:40:08;;;;;;;36.23;17.73;;;1.70;98.10;;;;;;816992;176;26481;-77
2024/01/16 04:42:35;;;;;;;37.37;18.87;;;1.70;98.10;;;;;;816822;176;26464;-77
2024/01/16 04:45:01;;;;;;;37.30;17.87;;;1.70;98.10;;;;;;816537;175;26475;-77
2024/01/16 04:47:28;;;;;;;41.97;17.07;;;1.70;97.90;;;;;;815686;175;26488;-77
2024/01/16 04:49:54;;;;;;;30.20;16.20;;;1.60;97.90;;;;;;815858;176;26500;-74
2024/01/16 04:52:21;;;;;;;34.07;17.97;;;1.70;97.90;;;;;;816211;175;26497;-76
2024/01/16 04:54:48;;;;;;;30.57;14.00;;;1.70;97.90;;;;;;817168;175;27038;-76
2024/01/16 04:57:15;;;;;;;37.97;14.53;;;1.70;97.60;;;;;;816838;176;26489;-76
2024/01/16 04:59:41;;;;;;;30.63;13.17;;;1.70;97.60;;;;;;815878;174;27017;-76
2024/01/16 05:02:07;;;;;;;32.10;14.90;;;1.70;97.60;;;;;;816117;175;26427;-77
2024/01/16 05:04:34;;;;;;;27.90;12.23;;;1.70;97.50;;;;;;816501;174;28112;-77
2024/01/16 05:07:00;;;;;;;34.53;12.73;;;1.70;97.50;;;;;;818068;173;26474;-77
2024/01/16 05:09:27;;;;;;;36.07;12.97;;;1.70;97.40;;;;;;815342;175;26447;-77
2024/01/16 05:11:54;;;;;;;34.40;11.50;;;1.70;97.30;;;;;;813441;176;26428;-76
2024/01/16 05:14:24;;;;;;;28.43;11.07;;;1.70;97.20;;;;;;813988;176;26429;-73
2024/01/16 05:16:47;;;;;;;28.50;12.03;;;1.70;97.10;;;;;;815618;174;26481;-76
2024/01/16 05:19:13;;;;;;;27.43;10.73;;;1.70;97.20;;;;;;814488;175;26463;-77
2024/01/16 05:21:40;;;;;;;28.20;10.37;;;1.70;97.30;;;;;;813575;176;26482;-77
2024/01/16 05:24:07;;;;;;;34.77;11.53;;;1.80;97.30;;;;;;813971;176;26475;-76
2024/01/16 05:26:33;;;;;;;29.70;10.47;;;1.80;97.30;;;;;;812578;176;26478;-76
2024/01/16 05:29:00;;;;;;;25.17;10.57;;;1.80;97.10;;;;;;812394;176;26431;-77
2024/01/16 05:31:26;;;;;;;32.53;12.00;;;1.80;97.00;;;;;;815104;175;26427;-77
2024/01/16 05:33:53;;;;;;;24.73;11.30;;;1.80;97.10;;;;;;815443;176;26452;-77
2024/01/16 05:36:20;;;;;;;34.83;11.17;;;1.80;97.00;;;;;;816910;176;26423;-76
2024/01/16 05:38:46;;;;;;;34.00;11.67;;;1.80;97.10;;;;;;816900;175;26982;-77
2024/01/16 05:41:13;;;;;;;27.73;11.53;;;1.80;97.00;;;;;;816519;176;26424;-77
2024/01/16 05:43:39;;;;;;;31.67;11.13;;;1.80;97.00;;;;;;816408;175;26475;-77
2024/01/16 05:46:06;;;;;;;30.40;11.57;;;1.80;97.20;;;;;;813656;176;26480;-76
2024/01/16 05:48:33;;;;;;;34.33;13.50;;;1.80;97.20;;;;;;809906;177;26419;-73
2024/01/16 05:50:59;;;;;;;31.23;12.03;;;1.80;97.30;;;;;;810579;176;26427;-76
2024/01/16 05:53:26;;;;;;;39.37;14.47;;;1.80;97.30;;;;;;816805;175;26408;-77
2024/01/16 05:55:53;;;;;;;25.17;12.33;;;1.80;97.10;;;;;;817267;175;26416;-76
2024/01/16 05:58:19;;;;;;;28.20;11.80;;;1.80;97.10;;;;;;814279;175;26407;-77
2024/01/16 06:00:46;;;;;;;29.20;11.57;;;1.80;96.90;;;;;;812407;176;26977;-76
2024/01/16 06:03:12;;;;;;;32.47;11.93;;;1.80;96.70;;;;;;811115;176;26460;-77
2024/01/16 06:05:39;;;;;;;27.07;12.90;;;1.80;96.50;;;;;;810994;176;27030;-77
2024/01/16 06:08:05;;;;;;;31.97;12.23;;;1.80;96.50;;;;;;810854;175;26471;-77
2024/01/16 06:10:32;;;;;;;28.53;11.20;;;1.80;96.50;;;;;;810988;176;26455;-77
2024/01/16 06:12:59;;;;;;;28.83;11.43;;;1.80;96.50;;;;;;810768;176;27023;-73
2024/01/16 06:15:25;;;;;;;28.50;11.80;;;1.80;96.30;;;;;;810965;177;26471;-77
2024/01/16 06:17:52;;;;;;;24.33;11.27;;;1.80;96.10;;;;;;812050;174;26506;-76
2024/01/16 06:20:20;;;;;;;30.73;11.27;;;1.80;96.20;;;;;;813391;176;26484;-76
2024/01/16 06:22:45;;;;;;;37.47;11.00;;;1.80;96.20;;;;;;813235;174;26415;-76
2024/01/16 06:25:11;;;;;;;27.37;10.57;;;1.80;95.90;;;;;;812554;177;26415;-76
2024/01/16 06:27:38;;;;;;;28.33;10.37;;;1.80;95.60;;;;;;812073;177;26465;-76
2024/01/16 06:30:05;;;;;;;27.37;10.67;;;1.80;95.60;;;;;;811994;175;26485;-75
2024/01/16 06:32:32;;;;;;;25.03;9.67;;;1.80;95.50;;;;;;812101;176;26516;-76
2024/01/16 06:34:58;;;;;;;34.57;9.87;;;1.80;95.50;;;;;;812197;175;27100;-77
2024/01/16 06:37:25;;;;;;;23.20;10.20;;;1.80;95.50;;;;;;811326;177;26411;-76
2024/01/16 06:39:51;;;;;;;32.90;11.10;;;1.80;95.20;;;;;;811496;176;26967;-76
2024/01/16 06:42:19;;;;;;;33.27;11.17;;;1.80;95.30;;;;;;815863;174;26466;-76
2024/01/16 06:44:45;;;;;;;25.10;8.63;;;1.80;95.30;;;;;;810958;175;26418;-77
2024/01/16 06:47:11;;;;;;;29.07;9.97;;;1.80;94.80;;;;;;813634;176;26475;-76
2024/01/16 06:49:38;;;;;;;23.77;9.13;;;1.80;94.70;;;;;;813658;176;26471;-73
2024/01/16 06:52:04;;;;;;;33.57;10.13;;;1.80;94.70;;;;;;813613;176;26483;-76
2024/01/16 06:54:31;;;;;;;30.27;9.23;;;1.90;94.60;;;;;;813827;176;26470;-76
2024/01/16 06:56:58;;;;;;;23.13;9.47;;;1.90;94.50;;;;;;815272;175;26462;-70
2024/01/16 06:59:24;;;;;;;32.73;10.30;;;2.00;95.50;;;;;;810516;177;26411;-70
2024/01/16 07:01:51;;;;;;;27.10;11.37;;;2.00;95.00;;;;;;763440;177;26623;-68
2024/01/16 07:04:17;;;;;;;27.60;10.97;;;2.10;95.10;;;;;;757620;189;26525;-68
2024/01/16 07:06:44;;;;;;;26.27;9.20;;;2.10;95.20;;;;;;762580;187;26542;-70
2024/01/16 07:09:11;;;;;;;22.70;7.90;;;2.10;94.40;;;;;;763249;188;26490;-77
2024/01/16 07:11:38;;;;;;;18.57;7.70;;;2.10;93.60;;;;;;766575;186;26531;-77
2024/01/16 07:14:04;;;;;;;27.20;8.70;;;2.10;93.10;;;;;;762611;188;26474;-77
2024/01/16 07:16:30;;;;;;;21.10;8.40;;;2.00;93.00;;;;;;765899;187;27139;-76
2024/01/16 07:18:57;;;;;;;19.70;7.83;;;2.00;93.10;;;;;;766040;187;26530;-77
2024/01/16 07:21:24;;;;;;;20.50;8.00;;;2.00;92.80;;;;;;765941;187;27094;-76
2024/01/16 07:23:50;;;;;;;28.43;8.30;;;2.00;93.00;;;;;;776840;184;26497;-77
2024/01/16 07:26:17;;;;;;;23.00;7.80;;;2.00;92.70;;;;;;777766;184;26513;-78
2024/01/16 07:28:43;;;;;;;24.70;6.83;;;2.00;92.90;;;;;;779142;182;26497;-78
2024/01/16 07:31:11;;;;;;;27.37;7.53;;;2.00;93.00;;;;;;780847;182;26457;-79
2024/01/16 07:33:36;;;;;;;20.93;6.40;;;2.00;93.30;;;;;;777170;184;26497;-77
2024/01/16 07:36:03;;;;;;;18.63;7.03;;;2.00;92.80;;;;;;778957;184;27281;-77
2024/01/16 07:38:30;;;;;;;20.93;6.87;;;2.00;92.50;;;;;;767216;186;27068;-77
2024/01/16 07:40:56;;;;;;;18.93;7.33;;;2.10;92.30;;;;;;766963;186;26536;-77
2024/01/16 07:43:23;;;;;;;19.10;6.80;;;2.00;92.40;;;;;;766404;186;26542;-77
2024/01/16 07:45:50;;;;;;;24.83;7.37;;;2.00;92.20;;;;;;762880;187;26505;-77
2024/01/16 07:48:16;;;;;;;19.13;6.07;;;2.00;91.90;;;;;;762608;188;26547;-77
2024/01/16 07:50:44;;;;;;;22.87;7.40;;;2.00;92.00;;;;;;762675;188;26482;-78
2024/01/16 07:53:09;;;;;;;21.53;6.70;;;2.00;92.10;;;;;;763149;186;26493;-77
2024/01/16 07:55:36;;;;;;;21.97;7.10;;;2.00;92.10;;;;;;769557;186;26477;-78
2024/01/16 07:58:04;;;;;;;21.97;7.23;;;2.00;92.10;;;;;;769807;186;26484;-77
2024/01/16 08:00:29;;;;;;;24.60;6.97;;;2.00;92.10;;;;;;769303;185;26582;-75
2024/01/16 08:02:56;;;;;;;20.73;7.27;;;2.00;92.00;;;;;;769912;185;27094;-79
2024/01/16 08:05:25;;;;;;;21.60;6.97;;;2.00;92.00;;;;;;767006;185;26468;-77
2024/01/16 08:07:49;;;;;;;19.10;6.23;;;1.90;91.80;;;;;;765981;187;26512;-77
2024/01/16 08:10:16;;;;;;;24.00;7.03;;;2.00;91.90;;;;;;766097;187;26518;-77
2024/01/16 08:12:43;;;;;;;15.87;5.70;;;2.00;92.00;;;;;;765995;187;27061;-77
2024/01/16 08:15:09;;;;;;;15.10;5.70;;;2.00;91.70;;;;;;767688;185;26526;-78
2024/01/16 08:17:36;;;;;;;22.03;5.90;;;2.00;91.40;;;;;;769273;185;26475;-78
2024/01/16 08:20:03;;;;;;;25.33;6.40;;;1.90;91.70;;;;;;769401;186;26472;-77
2024/01/16 08:22:29;;;;;;;15.07;5.23;;;2.00;91.50;;;;;;764399;185;26508;-77
2024/01/16 08:24:55;;;;;;;20.57;5.80;;;1.90;91.30;;;;;;762275;186;26498;-76
2024/01/16 08:27:22;;;;;;;16.43;5.90;;;1.90;91.20;;;;;;762227;188;26535;-77
2024/01/16 08:29:49;;;;;;;16.10;5.70;;;1.90;91.00;;;;;;765907;187;26523;-76
2024/01/16 08:32:15;;;;;;;22.90;6.10;;;1.90;91.10;;;;;;763232;186;26543;-74
2024/01/16 08:34:42;;;;;;;18.10;6.40;;;1.90;91.50;;;;;;776037;185;26487;-77
2024/01/16 08:37:09;;;;;;;22.93;5.50;;;2.00;91.30;;;;;;774082;185;26529;-77
2024/01/16 08:39:35;;;;;;;18.97;5.60;;;2.10;91.40;;;;;;775271;181;26462;-77
2024/01/16 08:42:03;;;;;;;21.30;6.10;;;2.10;90.50;;;;;;776285;183;26492;-77
2024/01/16 08:44:29;;;;;;;13.23;5.17;;;2.00;90.70;;;;;;776170;180;27037;-77
2024/01/16 08:46:55;;;;;;;14.37;4.97;;;2.10;91.00;;;;;;767956;186;26502;-77
2024/01/16 08:49:22;;;;;;;15.83;5.30;;;2.10;90.80;;;;;;770644;183;26547;-77
2024/01/16 08:51:49;;;;;;;9.97;4.30;;;2.10;90.40;;;;;;770182;185;26530;-77
2024/01/16 08:54:15;;;;;;;17.83;5.73;;;2.10;90.30;;;;;;770255;185;27104;-78
2024/01/16 08:56:42;;;;;;;27.80;5.97;;;2.00;90.20;;;;;;770113;185;26558;-77
2024/01/16 08:59:10;;;;;;;31.40;6.40;;;2.00;90.30;;;;;;769873;185;27130;-77
2024/01/16 09:01:35;;;;;;;19.07;5.63;;;2.00;89.70;;;;;;767749;186;26473;-77
2024/01/16 09:04:02;;;;;;;21.33;5.90;;;2.00;90.20;;;;;;765683;186;27069;-77
2024/01/16 09:06:28;;;;;;;15.83;4.80;;;2.00;89.70;;;;;;766139;182;26490;-76
2024/01/16 09:08:55;;;;;;;16.37;5.30;;;2.00;88.20;;;;;;765197;186;27101;-77
2024/01/16 09:11:21;;;;;;;13.47;5.00;;;2.00;89.20;;;;;;766917;186;26529;-76
2024/01/16 09:13:48;;;;;;;15.73;5.87;;;1.90;88.50;;;;;;769812;183;26488;-77
2024/01/16 09:16:14;;;;;;;12.93;5.70;;;2.00;89.00;;;;;;764225;186;26565;-77
2024/01/16 09:18:41;;;;;;;24.50;6.77;;;2.00;88.80;;;;;;766550;186;26542;-77
2024/01/16 09:21:08;;;;;;;23.63;6.57;;;2.00;88.60;;;;;;766103;186;26519;-77
2024/01/16 09:23:34;;;;;;;23.80;6.87;;;2.00;89.20;;;;;;768778;186;26489;-77
2024/01/16 09:26:01;;;;;;;25.67;7.60;;;2.00;89.10;;;;;;768802;185;26493;-77
2024/01/16 09:28:28;;;;;;;15.37;5.50;;;2.00;88.40;;;;;;765931;187;26530;-78
2024/01/16 09:30:55;;;;;;;17.20;6.27;;;2.00;88.30;;;;;;776565;184;27147;-77
2024/01/16 09:33:21;;;;;;;21.53;6.37;;;2.00;88.50;;;;;;777561;183;26538;-79
2024/01/16 09:35:47;;;;;;;15.00;5.93;;;1.90;88.10;;;;;;776700;183;28120;-75
2024/01/16 09:38:14;;;;;;;19.30;5.60;;;1.90;88.90;;;;;;774166;185;26540;-74
2024/01/16 09:40:40;;;;;;;19.80;5.50;;;2.00;88.40;;;;;;774177;185;27102;-77
2024/01/16 09:43:08;;;;;;;28.53;6.67;;;2.00;88.60;;;;;;777316;184;26523;-77
2024/01/16 09:45:33;;;;;;;18.20;6.53;;;1.90;88.00;;;;;;777602;183;27006;-77
2024/01/16 09:48:00;;;;;;;31.70;12.10;;;1.90;88.20;;;;;;776860;184;26505;-74
2024/01/16 09:50:27;;;;;;;40.17;14.27;;;1.90;88.60;;;;;;776912;184;27093;-77
2024/01/16 09:52:53;;;;;;;20.00;7.20;;;2.00;89.20;;;;;;773422;182;26500;-77
2024/01/16 09:55:21;;;;;;;19.00;6.30;;;2.00;87.90;;;;;;775549;184;27030;-77
2024/01/16 09:57:46;;;;;;;28.57;7.30;;;2.00;87.90;;;;;;779267;183;26470;-77
2024/01/16 10:00:13;;;;;;;44.97;17.13;;;2.10;87.90;;;;;;766932;186;27085;-75
2024/01/16 10:02:40;;;;;;;75.50;23.90;;;2.10;87.80;;;;;;763675;186;27128;-78
2024/01/16 10:05:09;;;;;;;64.20;22.63;;;2.10;87.70;;;;;;775219;185;26453;-78
2024/01/16 10:07:36;;;;;;;48.17;14.17;;;2.10;87.90;;;;;;775202;181;26483;-77
2024/01/16 10:10:03;;;;;;;19.27;8.23;;;2.20;87.90;;;;;;774964;185;26465;-77
2024/01/16 10:12:29;;;;;;;25.80;7.83;;;2.30;88.60;;;;;;775038;185;27090;-76
2024/01/16 10:14:56;;;;;;;16.80;6.63;;;2.30;86.60;;;;;;767716;186;26473;-77
2024/01/16 10:17:22;;;;;;;26.53;7.30;;;2.20;86.30;;;;;;762940;187;27047;-78
2024/01/16 10:19:49;;;;;;;25.03;6.63;;;2.30;86.90;;;;;;761050;188;26583;-77
2024/01/16 10:22:24;;;;;;;15.03;5.73;;;2.30;85.80;;;;;;775785;185;27022;-77
2024/01/16 10:24:50;;;;;;;25.93;6.90;;;2.20;85.80;;;;;;768911;186;26528;-77
2024/01/16 10:27:17;;;;;;;20.57;7.53;;;2.30;86.40;;;;;;768883;184;26501;-78
2024/01/16 10:29:55;;;;;;;24.20;10.47;;;2.50;86.90;;;;;;762793;188;26473;-79
2024/01/16 10:32:38;;;;;;;42.57;15.87;;;2.60;84.70;;;;;;762890;187;26642;-77
2024/01/16 10:35:08;;;;;;;27.90;10.70;;;2.80;85.00;;;;;;768954;186;26502;-77
2024/01/16 10:37:43;;;;;;;34.27;10.93;;;2.90;84.70;;;;;;763533;186;27017;-78
2024/01/16 10:40:08;;;;;;;25.53;8.37;;;2.90;84.50;;;;;;776367;184;26666;-77
2024/01/16 10:42:35;;;;;;;37.27;10.87;;;3.00;83.90;;;;;;763580;186;26510;-77
2024/01/16 10:45:02;;;;;;;17.80;6.83;;;3.00;83.00;;;;;;762100;188;26996;-77
2024/01/16 10:47:28;;;;;;;16.73;6.50;;;3.00;83.20;;;;;;767337;186;27756;-77
2024/01/16 10:49:55;;;;;;;23.37;7.57;;;2.80;82.70;;;;;;765887;187;27100;-77
2024/01/16 10:52:21;;;;;;;38.47;13.77;;;2.70;82.80;;;;;;764355;186;26473;-78
2024/01/16 10:54:49;;;;;;;51.77;18.60;;;2.80;83.10;;;;;;765067;186;27044;-77
2024/01/16 10:57:14;;;;;;;28.00;7.07;;;3.00;84.50;;;;;;761687;188;26473;-77
2024/01/16 10:59:46;;;;;;;44.27;11.77;;;3.20;81.90;;;;;;761036;188;27041;-77
2024/01/16 11:02:12;;;;;;;37.87;13.10;;;3.30;81.60;;;;;;762717;184;26576;-77
2024/01/16 11:04:39;;;;;;;31.90;12.73;;;3.30;81.20;;;;;;769522;184;26564;-74
2024/01/16 11:07:05;;;;;;;35.80;14.73;;;3.50;80.20;;;;;;764349;187;26495;-77
2024/01/16 11:09:32;;;;;;;87.20;25.97;;;3.50;79.30;;;;;;767596;186;26560;-78
2024/01/16 11:11:59;;;;;;;98.23;31.50;;;3.40;78.80;;;;;;769778;186;26496;-78
2024/01/16 11:14:26;;;;;;;66.20;20.20;;;3.20;79.60;;;;;;768898;183;28061;-78
2024/01/16 11:16:52;;;;;;;71.47;28.43;;;3.00;81.20;;;;;;767604;185;26512;-78
2024/01/16 11:19:18;;;;;;;143.23;44.60;;;2.90;80.90;;;;;;763317;186;26543;-77
2024/01/16 11:21:45;;;;;;;196.67;57.33;;;2.70;82.20;;;;;;764810;186;26541;-78
2024/01/16 11:24:12;;;;;;;71.70;25.33;;;2.70;82.40;;;;;;762496;188;27072;-77
2024/01/16 11:26:41;;;;;;;41.27;12.60;;;2.80;82.80;;;;;;768425;186;26539;-78
2024/01/16 11:29:19;;;;;;;96.43;31.30;;;2.80;82.80;;;;;;761305;186;26528;-77
2024/01/16 11:31:46;;;;;;;153.87;47.63;;;2.90;81.90;;;;;;766583;186;26574;-77
2024/01/16 11:34:12;;;;;;;192.00;49.67;;;2.80;81.50;;;;;;766729;186;26489;-78
2024/01/16 11:36:47;;;;;;;106.60;32.80;;;2.80;81.80;;;;;;767254;183;27013;-78
2024/01/16 11:39:17;;;;;;;115.47;37.33;;;2.70;83.10;;;;;;763279;186;27044;-78
2024/01/16 11:41:51;;;;;;;34.73;13.53;;;2.80;82.30;;;;;;763229;187;27041;-77
2024/01/16 11:44:29;;;;;;;39.43;13.00;;;2.80;82.20;;;;;;770083;185;26498;-78
2024/01/16 11:47:00;;;;;;;83.83;30.60;;;2.90;83.30;;;;;;766540;186;27033;-76
2024/01/16 11:49:27;;;;;;;90.43;30.23;;;2.90;81.10;;;;;;775777;185;26446;-76
2024/01/16 11:51:53;;;;;;;30.67;9.67;;;2.90;81.20;;;;;;765580;186;27109;-78
2024/01/16 11:54:20;;;;;;;42.90;13.53;;;3.10;81.30;;;;;;769437;185;26520;-74
2024/01/16 11:57:00;;;;;;;75.87;26.30;;;3.20;79.20;;;;;;766216;186;27049;-79
2024/01/16 11:59:37;;;;;;;25.97;11.03;;;3.30;80.00;;;;;;766201;185;26488;-78
2024/01/16 12:02:03;;;;;;;74.50;26.50;;;3.20;78.20;;;;;;764109;185;26477;-78
2024/01/16 12:04:30;;;;;;;98.77;27.73;;;2.90;78.80;;;;;;766685;186;27023;-78
2024/01/16 12:06:58;;;;;;;36.63;12.43;;;2.60;79.60;;;;;;774217;185;26462;-78
2024/01/16 12:09:24;;;;;;;80.30;30.00;;;2.60;80.60;;;;;;767912;186;26493;-78
2024/01/16 12:12:00;;;;;;;68.57;26.87;;;2.60;80.70;;;;;;763127;185;27103;-78
2024/01/16 12:14:26;;;;;;;129.63;39.97;;;2.70;81.40;;;;;;762660;185;26457;-75
2024/01/16 12:16:53;;;;;;;75.53;25.93;;;3.20;81.20;;;;;;766053;184;26550;-78
2024/01/16 12:19:19;;;;;;;16.17;7.20;;;3.80;78.00;;;;;;766603;186;26561;-79
2024/01/16 12:21:46;;;;;;;30.43;12.83;;;4.20;76.70;;;;;;765949;186;26528;-77
2024/01/16 12:24:13;;;;;;;30.73;10.00;;;4.60;77.80;;;;;;762480;185;26538;-78
2024/01/16 12:26:41;;;;;;;22.47;8.70;;;4.60;72.10;;;;;;757984;184;26490;-78
2024/01/16 12:29:06;;;;;;;21.53;9.57;;;4.20;72.30;;;;;;764263;187;26551;-77
2024/01/16 12:31:34;;;;;;;28.80;10.03;;;3.90;74.20;;;;;;762326;187;26560;-77
2024/01/16 12:34:08;;;;;;;21.03;8.80;;;3.70;75.60;;;;;;762710;186;26559;-78
2024/01/16 12:36:35;;;;;;;239.27;68.57;;;3.60;76.40;;;;;;768269;184;27037;-79
2024/01/16 12:39:02;;;;;;;90.20;28.60;;;3.70;76.00;;;;;;768182;183;26522;-78